Time;durP1;ratioP1;P1;durP2;ratioP2;P2;SDS_P1;SDS_P2;PMS_P1;PMS_P2;Temp;Humidity;BMP_temperature;BMP_pressure;BME280_temperature;BME280_humidity;BME280_pressure;Samples;Min_cycle;Max_cycle;Signal;HPM_P1;HPM_P2
2023/10/31 00:00:38;;;;;;;32.38;13.00;;;;;;;11.59;100.00;99762.47;5267807;28;20032;-71
2023/10/31 00:03:09;;;;;;;33.15;13.30;;;;;;;11.73;100.00;99761.53;5267477;28;20468;-71
2023/10/31 00:05:40;;;;;;;36.05;14.15;;;;;;;11.78;100.00;99758.25;5265611;28;20047;-71
2023/10/31 00:08:10;;;;;;;39.33;15.63;;;;;;;11.74;100.00;99770.41;5266741;28;20427;-71
2023/10/31 00:10:44;;;;;;;44.33;17.23;;;;;;;11.79;100.00;99765.25;5263986;28;20050;-71
2023/10/31 00:13:15;;;;;;;44.63;16.60;;;;;;;11.86;100.00;99768.84;5266069;28;20095;-70
2023/10/31 00:15:45;;;;;;;47.35;18.05;;;;;;;11.86;100.00;99763.47;5265867;28;20536;-71
2023/10/31 00:18:16;;;;;;;43.03;17.60;;;;;;;11.83;100.00;99783.50;5264981;28;20036;-71
2023/10/31 00:20:46;;;;;;;52.25;17.42;;;;;;;11.81;100.00;99773.97;5262654;28;20035;-71
2023/10/31 00:23:17;;;;;;;52.70;18.83;;;;;;;11.86;100.00;99774.22;5261130;28;20032;-71
2023/10/31 00:25:48;;;;;;;55.15;20.52;;;;;;;11.91;100.00;99779.84;5262393;28;20035;-71
2023/10/31 00:28:18;;;;;;;49.75;19.65;;;;;;;11.85;100.00;99780.63;5262420;28;20558;-71
2023/10/31 00:30:49;;;;;;;46.95;19.08;;;;;;;11.88;100.00;99783.72;5265486;28;20035;-72
2023/10/31 00:33:19;;;;;;;48.67;19.95;;;;;;;11.90;100.00;99799.69;5264959;28;20078;-72
2023/10/31 00:35:49;;;;;;;43.38;19.23;;;;;;;11.78;100.00;99795.84;5264836;28;20055;-71
2023/10/31 00:38:20;;;;;;;51.70;22.17;;;;;;;11.83;100.00;99794.25;5264557;28;20099;-72
2023/10/31 00:40:50;;;;;;;50.90;20.52;;;;;;;11.88;100.00;99799.84;5265310;28;20024;-72
2023/10/31 00:43:22;;;;;;;58.63;22.13;;;;;;;11.92;100.00;99805.69;5262890;28;20473;-71
2023/10/31 00:45:53;;;;;;;59.85;23.38;;;;;;;11.87;100.00;99802.75;5263838;28;20425;-72
2023/10/31 00:48:24;;;;;;;60.40;22.80;;;;;;;11.97;100.00;99805.06;5261534;28;20110;-72
2023/10/31 00:50:54;;;;;;;58.00;23.92;;;;;;;11.83;100.00;99805.00;5264632;28;20568;-71
2023/10/31 00:53:25;;;;;;;62.45;23.80;;;;;;;11.87;100.00;99806.28;5260142;28;20488;-71
2023/10/31 00:55:55;;;;;;;57.85;23.17;;;;;;;11.94;100.00;99814.34;5263205;28;20023;-71
2023/10/31 00:58:26;;;;;;;64.10;25.08;;;;;;;12.01;100.00;99814.41;5259812;28;20028;-71
2023/10/31 01:00:56;;;;;;;60.22;24.20;;;;;;;11.98;100.00;99812.94;5264091;28;20034;-71
2023/10/31 01:03:27;;;;;;;64.22;24.73;;;;;;;12.02;100.00;99814.19;5264681;28;20488;-72
2023/10/31 01:05:57;;;;;;;61.00;24.30;;;;;;;12.03;100.00;99815.03;5260759;28;20106;-71
2023/10/31 01:08:29;;;;;;;72.20;26.08;;;;;;;12.02;100.00;99816.06;5266618;28;20046;-71
2023/10/31 01:11:00;;;;;;;59.53;24.63;;;;;;;12.02;100.00;99816.88;5266423;28;20031;-71
2023/10/31 01:13:30;;;;;;;57.08;23.27;;;;;;;12.08;100.00;99817.94;5264182;28;20034;-71
2023/10/31 01:16:01;;;;;;;56.92;22.35;;;;;;;12.07;100.00;99817.09;5263961;28;20110;-71
2023/10/31 01:18:31;;;;;;;61.10;23.73;;;;;;;12.06;100.00;99825.38;5264443;28;20055;-74
2023/10/31 01:21:02;;;;;;;49.92;21.75;;;;;;;12.10;100.00;99832.03;5264246;28;20024;-71
2023/10/31 01:23:33;;;;;;;42.13;20.20;;;;;;;12.13;100.00;99832.44;5265949;28;20034;-72
2023/10/31 01:26:03;;;;;;;43.80;19.92;;;;;;;12.10;100.00;99832.03;5258045;28;20033;-72
2023/10/31 01:28:34;;;;;;;45.72;19.83;;;;;;;12.09;100.00;99833.03;5270943;28;20039;-71
2023/10/31 01:31:04;;;;;;;47.13;20.33;;;;;;;12.12;100.00;99830.78;5263159;28;20035;-71
2023/10/31 01:33:35;;;;;;;41.47;20.52;;;;;;;12.12;100.00;99829.94;5263102;28;20105;-72
2023/10/31 01:36:06;;;;;;;51.17;20.30;;;;;;;12.14;100.00;99831.38;5260434;28;20030;-71
2023/10/31 01:38:37;;;;;;;52.20;19.77;;;;;;;12.16;100.00;99837.41;5260371;28;20020;-71
2023/10/31 01:41:07;;;;;;;44.35;18.48;;;;;;;12.17;100.00;99839.06;5250684;28;20039;-74
2023/10/31 01:43:38;;;;;;;46.55;20.45;;;;;;;12.15;100.00;99827.69;5263833;28;20027;-72
2023/10/31 01:46:09;;;;;;;35.40;17.80;;;;;;;12.20;100.00;99835.16;5258853;28;20024;-72
2023/10/31 01:48:40;;;;;;;48.38;19.52;;;;;;;12.16;100.00;99837.41;5255629;28;20028;-71
2023/10/31 01:51:11;;;;;;;37.70;17.05;;;;;;;12.11;100.00;99839.06;5258957;28;20023;-72
2023/10/31 01:53:42;;;;;;;46.53;17.98;;;;;;;12.11;100.00;99839.88;5266275;28;20123;-72
2023/10/31 01:56:13;;;;;;;34.95;16.10;;;;;;;12.11;100.00;99842.56;5262832;28;20102;-72
2023/10/31 01:58:44;;;;;;;35.47;16.90;;;;;;;12.12;100.00;99841.53;5263096;28;20024;-72
2023/10/31 02:01:15;;;;;;;36.22;17.58;;;;;;;12.06;100.00;99847.72;5265652;28;20583;-72
2023/10/31 02:03:45;;;;;;;31.27;15.25;;;;;;;12.07;100.00;99846.69;5266282;28;20446;-71
2023/10/31 02:06:16;;;;;;;32.13;16.10;;;;;;;12.04;100.00;99855.13;5264878;28;20054;-72
2023/10/31 02:08:48;;;;;;;33.45;15.38;;;;;;;12.07;100.00;99851.22;5262765;28;20024;-71
2023/10/31 02:11:18;;;;;;;33.28;15.48;;;;;;;12.09;100.00;99846.47;5259981;28;20032;-71
2023/10/31 02:13:49;;;;;;;27.75;14.38;;;;;;;12.08;100.00;99845.66;5262194;28;20034;-72
2023/10/31 02:16:19;;;;;;;29.80;13.93;;;;;;;12.12;100.00;99848.78;5263325;28;20024;-71
2023/10/31 02:18:50;;;;;;;29.30;13.95;;;;;;;12.08;100.00;99845.66;5262595;28;20024;-71
2023/10/31 02:21:21;;;;;;;27.63;15.07;;;;;;;12.07;100.00;99841.31;5263541;28;20093;-71
2023/10/31 02:23:57;;;;;;;28.50;15.40;;;;;;;12.08;100.00;99848.31;5264954;28;20035;-71
2023/10/31 02:26:30;;;;;;;27.00;14.10;;;;;;;12.05;100.00;99850.56;5261070;28;20419;-71
2023/10/31 02:29:01;;;;;;;29.40;14.43;;;;;;;12.03;100.00;99842.72;5262521;28;20486;-71
2023/10/31 02:31:32;;;;;;;31.70;13.50;;;;;;;12.02;100.00;99841.06;5263645;28;20039;-71
2023/10/31 02:34:03;;;;;;;27.13;12.95;;;;;;;12.01;100.00;99836.72;5261660;28;20042;-71
2023/10/31 02:36:33;;;;;;;25.98;12.63;;;;;;;11.96;100.00;99847.25;5263220;28;20057;-71
2023/10/31 02:39:04;;;;;;;25.35;11.57;;;;;;;11.94;100.00;99854.66;5266793;28;20012;-71
2023/10/31 02:41:34;;;;;;;28.10;11.93;;;;;;;12.02;100.00;99846.44;5263880;28;20028;-71
2023/10/31 02:44:05;;;;;;;31.23;13.07;;;;;;;11.98;100.00;99855.09;5268911;28;20120;-71
2023/10/31 02:46:41;;;;;;;21.60;11.70;;;;;;;12.01;100.00;99857.41;5266589;28;20035;-71
2023/10/31 02:49:12;;;;;;;22.88;11.95;;;;;;;12.00;100.00;99864.66;5270448;28;20077;-71
2023/10/31 02:51:42;;;;;;;19.63;10.68;;;;;;;11.99;100.00;99854.06;5266221;28;20027;-71
2023/10/31 02:54:15;;;;;;;22.77;11.95;;;;;;;11.92;100.00;99862.94;5270658;28;20059;-71
2023/10/31 02:56:45;;;;;;;21.73;11.93;;;;;;;11.90;100.00;99866.88;5269538;28;20060;-71
2023/10/31 02:59:28;;;;;;;19.77;10.55;;;;;;;11.93;100.00;99872.66;5262658;28;20473;-71
2023/10/31 03:02:04;;;;;;;23.48;11.05;;;;;;;11.90;100.00;99874.94;5276796;28;20107;-71
2023/10/31 03:04:35;;;;;;;24.23;11.85;;;;;;;11.88;100.00;99877.81;5265718;28;20104;-71
2023/10/31 03:07:06;;;;;;;22.17;11.00;;;;;;;11.86;100.00;99876.34;5267664;28;20032;-71
2023/10/31 03:09:36;;;;;;;19.35;10.45;;;;;;;11.79;100.00;99875.44;5269079;28;20059;-71
2023/10/31 03:12:07;;;;;;;22.70;10.25;;;;;;;11.72;100.00;99883.47;5267737;28;20391;-71
2023/10/31 03:14:38;;;;;;;27.77;11.13;;;;;;;11.71;100.00;99883.66;5263275;28;20028;-71
2023/10/31 03:17:08;;;;;;;25.55;10.98;;;;;;;11.71;100.00;99892.56;5277105;28;20028;-71
2023/10/31 03:19:39;;;;;;;21.98;11.02;;;;;;;11.67;100.00;99889.44;5275205;28;20465;-71
2023/10/31 03:22:09;;;;;;;26.25;11.32;;;;;;;11.73;100.00;99895.88;5275295;28;20118;-71
2023/10/31 03:24:41;;;;;;;23.98;11.30;;;;;;;11.62;100.00;99909.84;5262265;28;20478;-71
2023/10/31 03:27:11;;;;;;;24.60;11.50;;;;;;;11.66;100.00;99906.56;5269869;28;20019;-71
2023/10/31 03:29:42;;;;;;;18.65;10.25;;;;;;;11.57;100.00;99910.44;5269303;28;20012;-71
2023/10/31 03:32:13;;;;;;;30.90;12.35;;;;;;;11.51;100.00;99921.13;5271616;28;20027;-71
2023/10/31 03:34:43;;;;;;;24.48;11.63;;;;;;;11.34;100.00;99924.06;5274130;28;20023;-71
2023/10/31 03:37:13;;;;;;;25.30;11.88;;;;;;;11.46;100.00;99926.25;5267816;28;20023;-71
2023/10/31 03:39:44;;;;;;;27.13;13.43;;;;;;;11.44;100.00;99929.13;5266655;28;20484;-71
2023/10/31 03:42:14;;;;;;;26.58;11.73;;;;;;;11.47;100.00;99927.91;5271490;28;20027;-71
2023/10/31 03:44:45;;;;;;;29.85;12.35;;;;;;;11.48;100.00;99934.94;5271920;28;20023;-71
2023/10/31 03:47:15;;;;;;;26.20;13.05;;;;;;;11.51;100.00;99946.13;5277003;28;20110;-71
2023/10/31 03:49:46;;;;;;;26.98;12.68;;;;;;;11.54;100.00;99943.03;5272091;28;20625;-71
2023/10/31 03:52:16;;;;;;;29.23;12.02;;;;;;;11.52;100.00;99953.16;5272255;28;20031;-71
2023/10/31 03:54:47;;;;;;;25.33;12.85;;;;;;;11.60;100.00;99955.72;5263261;27;20074;-71
2023/10/31 03:57:17;;;;;;;24.67;12.43;;;;;;;11.54;100.00;99944.91;5271051;28;20502;-71
2023/10/31 03:59:48;;;;;;;31.33;13.80;;;;;;;11.45;100.00;99951.47;5273426;28;20054;-71
2023/10/31 04:02:18;;;;;;;24.75;13.13;;;;;;;11.47;100.00;99952.91;5271990;28;20023;-71
2023/10/31 04:04:49;;;;;;;36.50;13.50;;;;;;;11.39;100.00;99951.19;5270360;28;20024;-71
2023/10/31 04:07:19;;;;;;;27.45;12.68;;;;;;;11.36;100.00;99958.81;5268037;28;20026;-71
2023/10/31 04:09:50;;;;;;;21.88;11.35;;;;;;;11.30;100.00;99957.75;5263632;28;20077;-71
2023/10/31 04:12:20;;;;;;;23.58;11.60;;;;;;;11.23;100.00;99961.38;5266628;28;20107;-71
2023/10/31 04:14:51;;;;;;;26.02;12.95;;;;;;;11.20;100.00;99967.13;5268645;28;20024;-71
2023/10/31 04:17:21;;;;;;;27.00;11.57;;;;;;;11.13;100.00;99970.56;5271455;28;20468;-71
2023/10/31 04:19:52;;;;;;;24.13;11.43;;;;;;;11.17;100.00;99976.38;5268828;28;20028;-71
2023/10/31 04:22:22;;;;;;;27.23;12.70;;;;;;;11.14;100.00;99979.44;5272737;28;20039;-71
2023/10/31 04:24:53;;;;;;;22.60;11.55;;;;;;;11.10;100.00;99981.69;5266780;28;20067;-71
2023/10/31 04:27:23;;;;;;;26.30;11.32;;;;;;;11.05;100.00;99984.13;5273073;28;20063;-71
2023/10/31 04:29:54;;;;;;;22.20;11.77;;;;;;;10.96;100.00;99977.22;5270081;28;20100;-71
2023/10/31 04:32:25;;;;;;;22.67;11.63;;;;;;;10.94;100.00;99981.91;5263622;28;20037;-71
2023/10/31 04:34:55;;;;;;;21.48;11.13;;;;;;;10.92;100.00;99983.16;5267769;28;20077;-71
2023/10/31 04:37:26;;;;;;;26.30;11.57;;;;;;;10.93;100.00;99996.38;5271843;28;20430;-71
2023/10/31 04:39:56;;;;;;;30.15;12.80;;;;;;;10.95;100.00;99991.66;5270224;28;20040;-71
2023/10/31 04:42:27;;;;;;;19.50;11.57;;;;;;;10.96;100.00;99987.94;5272192;28;20034;-71
2023/10/31 04:44:57;;;;;;;24.83;11.63;;;;;;;10.98;100.00;99995.78;5262447;28;20040;-71
2023/10/31 04:47:28;;;;;;;22.38;11.15;;;;;;;11.03;100.00;99998.75;5271835;28;20379;-71
2023/10/31 04:49:58;;;;;;;26.98;12.18;;;;;;;11.00;100.00;99999.97;5267918;28;20032;-71
2023/10/31 04:52:28;;;;;;;23.52;11.73;;;;;;;10.99;100.00;99998.28;5266542;28;20028;-71
2023/10/31 04:54:59;;;;;;;23.90;12.00;;;;;;;11.05;100.00;100007.44;5267615;28;20111;-71
2023/10/31 04:57:29;;;;;;;26.45;10.93;;;;;;;10.97;100.00;99994.97;5271148;28;20088;-71
2023/10/31 05:00:00;;;;;;;24.23;11.40;;;;;;;11.02;100.00;99995.22;5267723;28;20028;-71
2023/10/31 05:02:31;;;;;;;22.50;11.65;;;;;;;10.95;100.00;100001.56;5268326;28;20026;-71
2023/10/31 05:05:02;;;;;;;22.10;11.82;;;;;;;10.91;100.00;100001.09;5263719;28;20028;-71
2023/10/31 05:07:32;;;;;;;31.63;11.95;;;;;;;10.84;100.00;100009.09;5267585;28;20048;-71
2023/10/31 05:10:03;;;;;;;24.13;11.82;;;;;;;10.81;100.00;100020.19;5265551;28;20023;-71
2023/10/31 05:12:33;;;;;;;25.13;12.45;;;;;;;10.80;100.00;100023.06;5264825;28;20023;-71
2023/10/31 05:15:04;;;;;;;21.65;11.23;;;;;;;10.81;100.00;100019.34;5267245;28;20384;-71
2023/10/31 05:17:35;;;;;;;26.65;12.55;;;;;;;10.79;100.00;100022.22;5270035;28;20042;-71
2023/10/31 05:20:06;;;;;;;23.42;11.93;;;;;;;10.82;100.00;100021.00;5264433;28;20024;-71
2023/10/31 05:22:36;;;;;;;24.45;12.07;;;;;;;10.85;100.00;100026.00;5264346;28;20023;-71
2023/10/31 05:25:07;;;;;;;21.98;12.05;;;;;;;10.82;100.00;100026.38;5262141;28;20020;-71
2023/10/31 05:27:39;;;;;;;29.67;13.02;;;;;;;10.80;100.00;100025.75;5260919;28;20024;-71
2023/10/31 05:30:10;;;;;;;26.45;12.75;;;;;;;10.76;100.00;100035.19;5267663;28;20050;-71
2023/10/31 05:32:40;;;;;;;27.08;12.57;;;;;;;10.77;100.00;100040.34;5263722;28;20444;-71
2023/10/31 05:35:11;;;;;;;29.80;13.18;;;;;;;10.76;100.00;100045.91;5267290;28;20102;-71
2023/10/31 05:37:42;;;;;;;31.88;14.50;;;;;;;10.75;100.00;100045.09;5267271;28;20024;-71
2023/10/31 05:40:14;;;;;;;32.30;14.80;;;;;;;10.76;100.00;100054.78;5268400;28;20031;-71
2023/10/31 05:42:44;;;;;;;38.33;15.77;;;;;;;10.69;100.00;100061.91;5268100;28;20099;-71
2023/10/31 05:45:15;;;;;;;34.13;15.13;;;;;;;10.68;100.00;100067.47;5267680;28;20047;-71
2023/10/31 05:47:45;;;;;;;32.58;15.07;;;;;;;10.70;100.00;100077.00;5270818;28;20015;-71
2023/10/31 05:50:16;;;;;;;36.80;15.88;;;;;;;10.64;100.00;100085.75;5262641;28;20670;-71
2023/10/31 05:52:47;;;;;;;34.58;15.43;;;;;;;10.66;100.00;100089.13;5263779;28;20028;-71
2023/10/31 05:55:18;;;;;;;38.17;17.02;;;;;;;10.67;100.00;100087.25;5265324;28;20043;-71
2023/10/31 05:57:48;;;;;;;42.65;17.80;;;;;;;10.72;100.00;100083.00;5266208;28;20050;-71
2023/10/31 06:00:19;;;;;;;40.05;16.80;;;;;;;10.72;100.00;100084.84;5268929;28;20024;-71
2023/10/31 06:02:49;;;;;;;34.42;16.80;;;;;;;10.68;100.00;100094.28;5263660;28;20142;-72
2023/10/31 06:05:20;;;;;;;35.88;17.30;;;;;;;10.68;100.00;100083.56;5268118;28;20036;-71
2023/10/31 06:07:50;;;;;;;41.72;18.52;;;;;;;10.61;100.00;100095.03;5263442;28;20060;-71
2023/10/31 06:10:21;;;;;;;42.75;17.88;;;;;;;10.58;100.00;100098.06;5259655;28;20026;-71
2023/10/31 06:12:51;;;;;;;36.55;17.13;;;;;;;10.58;100.00;100092.69;5267711;28;20024;-71
2023/10/31 06:15:22;;;;;;;44.25;17.80;;;;;;;10.56;100.00;100094.75;5265628;28;20024;-71
2023/10/31 06:17:52;;;;;;;39.72;18.17;;;;;;;10.55;100.00;100089.59;5266170;28;20051;-71
2023/10/31 06:20:23;;;;;;;38.40;17.13;;;;;;;10.51;100.00;100097.16;5270969;28;20102;-71
2023/10/31 06:22:54;;;;;;;51.38;20.85;;;;;;;10.48;100.00;100100.19;5260057;28;20446;-71
2023/10/31 06:25:24;;;;;;;46.75;18.50;;;;;;;10.44;100.00;100106.97;5261258;28;20046;-71
2023/10/31 06:27:55;;;;;;;41.35;18.30;;;;;;;10.41;100.00;100104.63;5266316;28;20465;-71
2023/10/31 06:30:25;;;;;;;41.05;16.95;;;;;;;10.39;100.00;100106.66;5268050;28;20419;-71
2023/10/31 06:32:56;;;;;;;58.38;24.05;;;;;;;10.31;100.00;100114.78;5268788;28;20028;-71
2023/10/31 06:35:27;;;;;;;58.92;25.27;;;;;;;10.30;100.00;100113.13;5257901;28;20657;-71
2023/10/31 06:37:57;;;;;;;56.08;22.13;;;;;;;10.25;100.00;100116.34;5262784;28;20032;-71
2023/10/31 06:40:28;;;;;;;47.78;19.98;;;;;;;10.23;100.00;100112.97;5262523;28;20024;-70
2023/10/31 06:42:59;;;;;;;51.95;21.92;;;;;;;10.24;100.00;100111.16;5263147;28;20073;-71
2023/10/31 06:45:29;;;;;;;47.92;19.20;;;;;;;10.26;100.00;100122.53;5261996;28;20028;-71
2023/10/31 06:48:00;;;;;;;52.20;19.15;;;;;;;10.25;100.00;100120.88;5263536;28;20024;-70
2023/10/31 06:50:32;;;;;;;52.03;20.48;;;;;;;10.29;100.00;100127.53;5256264;28;20036;-70
2023/10/31 06:53:03;;;;;;;51.90;20.80;;;;;;;10.26;100.00;100119.88;5263822;28;20073;-71
2023/10/31 06:55:33;;;;;;;54.17;18.85;;;;;;;10.26;100.00;100119.88;5262455;28;20031;-71
2023/10/31 06:58:04;;;;;;;47.20;20.20;;;;;;;10.32;100.00;100130.69;5258077;28;20089;-70
2023/10/31 07:00:34;;;;;;;46.05;19.58;;;;;;;10.35;100.00;100127.66;5264246;28;20028;-71
2023/10/31 07:03:09;;;;;;;52.78;21.25;;;;;;;10.39;100.00;100128.09;5261705;28;20050;-70
2023/10/31 07:05:40;;;;;;;53.85;22.45;;;;;;;10.42;100.00;100132.28;5261442;28;20493;-70
2023/10/31 07:08:10;;;;;;;55.30;20.58;;;;;;;10.39;100.00;100130.78;5262278;28;20027;-71
2023/10/31 07:10:41;;;;;;;48.28;20.33;;;;;;;10.44;100.00;100131.09;5258805;28;20595;-71
2023/10/31 07:13:12;;;;;;;52.15;19.95;;;;;;;10.44;100.00;100131.09;5260085;28;20032;-71
2023/10/31 07:15:42;;;;;;;49.75;21.05;;;;;;;10.50;100.00;100141.09;5257174;28;20012;-71
2023/10/31 07:18:13;;;;;;;51.95;20.67;;;;;;;10.55;100.00;100129.81;5262915;28;20046;-71
2023/10/31 07:20:43;;;;;;;47.20;20.42;;;;;;;10.61;100.00;100143.31;5262697;28;20020;-71
2023/10/31 07:23:14;;;;;;;51.83;20.83;;;;;;;10.67;100.00;100146.28;5258442;28;20024;-70
2023/10/31 07:25:45;;;;;;;52.28;22.35;;;;;;;10.77;100.00;100144.97;5260605;28;20028;-71
2023/10/31 07:28:17;;;;;;;50.55;22.15;;;;;;;10.97;100.00;100147.13;5262542;28;20058;-71
2023/10/31 07:30:47;;;;;;;41.60;19.08;;;;;;;11.17;100.00;100150.06;5260663;28;20028;-71
2023/10/31 07:33:18;;;;;;;40.97;18.63;;;;;;;11.41;100.00;100155.94;5266636;28;20042;-71
2023/10/31 07:35:48;;;;;;;39.20;16.65;;;;;;;11.68;100.00;100164.31;5264224;28;20050;-71
2023/10/31 07:38:19;;;;;;;35.97;17.83;;;;;;;12.05;100.00;100154.34;5267212;28;20748;-71
2023/10/31 07:40:50;;;;;;;31.17;16.02;;;;;;;12.30;100.00;100160.16;5265002;28;20024;-72
2023/10/31 07:43:20;;;;;;;27.83;14.93;;;;;;;12.45;100.00;100152.88;5268727;28;20101;-73
2023/10/31 07:45:51;;;;;;;27.42;14.13;;;;;;;12.48;100.00;100160.53;5269165;28;20015;-72
2023/10/31 07:48:21;;;;;;;28.58;13.95;;;;;;;12.46;100.00;100165.28;5264357;28;20089;-72
2023/10/31 07:50:51;;;;;;;30.08;14.77;;;;;;;12.38;100.00;100160.03;5264432;28;20038;-72
2023/10/31 07:53:22;;;;;;;22.88;13.48;;;;;;;12.38;100.00;100170.81;5263507;28;20030;-72
2023/10/31 07:55:55;;;;;;;28.25;14.20;;;;;;;12.41;100.00;100170.41;5261398;28;20027;-72
2023/10/31 07:58:26;;;;;;;26.63;12.75;;;;;;;12.64;100.00;100168.31;5265607;28;20599;-72
2023/10/31 08:00:56;;;;;;;24.08;12.40;;;;;;;12.74;100.00;100170.66;5266368;28;20021;-72
2023/10/31 08:03:27;;;;;;;23.63;12.60;;;;;;;12.83;100.00;100166.78;5265556;28;20031;-72
2023/10/31 08:06:00;;;;;;;18.48;10.93;;;;;;;12.98;100.00;100174.75;5263724;28;20446;-72
2023/10/31 08:08:30;;;;;;;19.83;10.95;;;;;;;13.18;100.00;100166.78;5268492;28;20614;-72
2023/10/31 08:11:01;;;;;;;22.30;10.57;;;;;;;13.37;100.00;100162.53;5265374;28;20111;-72
2023/10/31 08:13:31;;;;;;;19.27;10.15;;;;;;;13.59;100.00;100166.75;5265204;28;20389;-71
2023/10/31 08:16:02;;;;;;;19.40;9.60;;;;;;;13.63;100.00;100169.91;5265765;28;20078;-72
2023/10/31 08:18:33;;;;;;;18.90;9.73;;;;;;;13.72;100.00;100160.59;5268082;28;20027;-72
2023/10/31 08:21:04;;;;;;;18.10;9.60;;;;;;;13.54;100.00;100171.09;5262316;28;20070;-72
2023/10/31 08:23:35;;;;;;;17.45;9.15;;;;;;;13.31;100.00;100184.91;5259281;28;20016;-72
2023/10/31 08:26:05;;;;;;;17.90;9.60;;;;;;;13.27;100.00;100189.03;5265157;28;20035;-72
2023/10/31 08:28:35;;;;;;;21.52;10.98;;;;;;;13.15;100.00;100183.31;5264396;28;20016;-72
2023/10/31 08:31:06;;;;;;;17.05;9.38;;;;;;;13.04;100.00;100183.88;5263577;28;20035;-72
2023/10/31 08:33:36;;;;;;;17.10;9.32;;;;;;;12.79;100.00;100187.03;5266076;28;20077;-73
2023/10/31 08:36:07;;;;;;;18.42;10.50;;;;;;;12.73;100.00;100189.69;5260875;28;20492;-72
2023/10/31 08:38:38;;;;;;;17.42;9.90;;;;;;;12.67;100.00;100184.06;5265458;28;20030;-72
2023/10/31 08:41:08;;;;;;;18.38;10.00;;;;;;;12.78;100.00;100188.06;5257401;28;20027;-72
2023/10/31 08:43:39;;;;;;;17.67;9.27;;;;;;;12.65;100.00;100186.13;5260739;28;20028;-72
2023/10/31 08:46:10;;;;;;;15.52;9.13;;;;;;;12.69;100.00;100194.63;5262285;28;20016;-72
2023/10/31 08:48:40;;;;;;;17.05;8.88;;;;;;;12.67;100.00;100200.22;5261481;28;20040;-72
2023/10/31 08:51:11;;;;;;;17.58;9.07;;;;;;;12.68;100.00;100203.75;5261332;28;20028;-72
2023/10/31 08:53:41;;;;;;;22.48;11.40;;;;;;;12.74;100.00;100205.63;5262290;28;20504;-72
2023/10/31 08:56:12;;;;;;;22.05;11.68;;;;;;;12.86;100.00;100214.03;5264405;28;20051;-72
2023/10/31 08:58:42;;;;;;;18.55;10.95;;;;;;;13.07;100.00;100215.81;5264664;28;20020;-72
2023/10/31 09:01:13;;;;;;;16.38;9.70;;;;;;;13.15;100.00;100219.19;5262074;28;20490;-72
2023/10/31 09:03:43;;;;;;;13.50;8.20;;;;;;;13.28;100.00;100220.31;5261269;28;20056;-72
2023/10/31 09:06:14;;;;;;;18.17;7.95;;;;;;;13.23;100.00;100225.47;5265932;28;20023;-72
2023/10/31 09:08:45;;;;;;;19.48;8.15;;;;;;;13.28;100.00;100229.22;5263259;28;20036;-72
2023/10/31 09:11:15;;;;;;;17.60;8.13;;;;;;;13.31;100.00;100228.00;5263244;28;20032;-72
2023/10/31 09:13:46;;;;;;;15.82;8.30;;;;;;;13.41;100.00;100231.16;5259741;28;20407;-72
2023/10/31 09:16:17;;;;;;;13.23;7.25;;;;;;;13.37;100.00;100230.72;5261012;28;20051;-72
2023/10/31 09:18:47;;;;;;;12.93;7.10;;;;;;;13.40;100.00;100226.78;5263297;28;20023;-73
2023/10/31 09:21:18;;;;;;;9.95;6.97;;;;;;;13.46;100.00;100234.09;5263603;28;20397;-72
2023/10/31 09:23:49;;;;;;;11.88;7.13;;;;;;;13.47;100.00;100235.75;5259740;28;20024;-72
2023/10/31 09:26:20;;;;;;;16.00;7.07;;;;;;;13.68;100.00;100240.19;5264099;28;20031;-72
2023/10/31 09:28:54;;;;;;;10.95;7.10;;;;;;;13.70;100.00;100240.81;5263925;28;20052;-72
2023/10/31 09:31:25;;;;;;;9.43;6.68;;;;;;;13.69;100.00;100248.06;5257819;28;20027;-72
2023/10/31 09:33:55;;;;;;;13.38;7.10;;;;;;;13.42;100.00;100247.13;5265652;28;20032;-72
2023/10/31 09:36:25;;;;;;;9.43;6.43;;;;;;;13.54;100.00;100250.06;5267950;28;20056;-72
2023/10/31 09:38:56;;;;;;;13.98;6.90;;;;;;;13.79;100.00;100260.34;5260762;28;20099;-72
2023/10/31 09:41:28;;;;;;;9.85;5.45;;;;;;;13.91;100.00;100250.66;5263213;28;20131;-72
2023/10/31 09:43:58;;;;;;;8.88;5.57;;;;;;;14.05;100.00;100244.25;5262533;28;20112;-75
2023/10/31 09:46:29;;;;;;;11.60;5.85;;;;;;;14.27;100.00;100253.03;5260614;28;20108;-72
2023/10/31 09:49:00;;;;;;;16.27;6.18;;;;;;;14.14;100.00;100258.38;5259597;28;20012;-72
2023/10/31 09:51:30;;;;;;;9.60;5.40;;;;;;;14.11;100.00;100265.03;5263893;28;20028;-72
2023/10/31 09:54:03;;;;;;;9.77;5.15;;;;;;;14.05;100.00;100263.13;5258679;28;20101;-74
2023/10/31 09:56:34;;;;;;;12.00;5.50;;;;;;;13.99;100.00;100269.34;5262793;28;20031;-73
2023/10/31 09:59:05;;;;;;;12.50;5.68;;;;;;;13.68;100.00;100272.53;5264009;28;20028;-72
2023/10/31 10:01:36;;;;;;;9.52;5.20;;;;;;;13.78;100.00;100278.38;5259578;28;20038;-72
2023/10/31 10:04:06;;;;;;;10.43;5.18;;;;;;;13.90;100.00;100284.03;5262504;28;20028;-73
2023/10/31 10:06:58;;;;;;;6.15;4.45;;;;;;;13.79;100.00;100290.00;5263200;28;20031;-73
2023/10/31 10:09:30;;;;;;;7.28;4.75;;;;;;;14.02;100.00;100289.69;5261710;28;20374;-75
2023/10/31 10:12:01;;;;;;;10.65;4.65;;;;;;;14.17;100.00;100299.28;5259016;28;20130;-74
2023/10/31 10:14:32;;;;;;;7.55;4.30;;;;;;;14.20;100.00;100303.44;5259864;28;20090;-74
2023/10/31 10:17:16;;;;;;;7.72;4.28;;;;;;;14.27;100.00;100298.91;5262224;28;20016;-72
2023/10/31 10:19:46;;;;;;;9.25;4.30;;;;;;;14.18;100.00;100298.25;5257718;28;20028;-74
2023/10/31 10:22:20;;;;;;;9.13;4.28;;;;;;;14.20;100.00;100303.44;5262925;28;20035;-74
2023/10/31 10:24:50;;;;;;;11.80;5.32;;;;;;;14.25;100.00;100304.47;5256308;28;20393;-72
2023/10/31 10:27:21;;;;;;;9.70;4.78;;;;;;;14.44;100.00;100307.44;5262428;28;20035;-73
2023/10/31 10:29:54;;;;;;;13.63;4.82;;;;;;;14.40;100.00;100307.00;5257883;28;20434;-73
2023/10/31 10:32:24;;;;;;;10.55;4.78;;;;;;;14.39;100.00;100310.75;5263014;28;20389;-73
2023/10/31 10:34:56;;;;;;;11.15;4.10;;;;;;;14.54;100.00;100310.59;5260840;28;20094;-74
2023/10/31 10:37:27;;;;;;;11.52;4.03;;;;;;;14.62;100.00;100310.41;5260398;28;20084;-72
2023/10/31 10:39:59;;;;;;;14.55;4.22;;;;;;;14.70;100.00;100315.59;5261316;28;20046;-73
2023/10/31 10:42:35;;;;;;;6.00;3.42;;;;;;;14.76;100.00;100316.66;5259296;28;20028;-73
2023/10/31 10:45:11;;;;;;;7.75;3.67;;;;;;;14.60;100.00;100309.78;5261612;28;20027;-76
2023/10/31 10:47:46;;;;;;;9.02;4.05;;;;;;;14.70;100.00;100318.31;5259119;28;20032;-72
2023/10/31 10:50:20;;;;;;;9.05;3.92;;;;;;;14.96;100.00;100322.91;5265332;28;20020;-73
2023/10/31 10:53:10;;;;;;;9.38;3.58;;;;;;;14.77;100.00;100327.25;5258719;28;20078;-72
2023/10/31 10:55:46;;;;;;;9.65;4.10;;;;;;;14.53;100.00;100325.13;5258671;28;20496;-73
2023/10/31 10:58:19;;;;;;;7.65;3.88;;;;;;;14.34;100.00;100332.13;5261954;28;20040;-73
2023/10/31 11:00:50;;;;;;;8.70;3.83;;;;;;;14.19;100.00;100329.56;5261423;28;20427;-72
2023/10/31 11:03:24;;;;;;;11.75;3.67;;;;;;;14.27;100.00;100335.84;5262175;28;20031;-72
2023/10/31 11:05:55;;;;;;;7.45;3.63;;;;;;;14.43;100.00;100336.28;5258228;28;20154;-73
2023/10/31 11:08:28;;;;;;;8.63;3.75;;;;;;;14.25;100.00;100336.84;5264653;28;20713;-74
2023/10/31 11:10:59;;;;;;;6.93;3.53;;;;;;;14.16;100.00;100334.56;5263058;28;20050;-73
2023/10/31 11:13:30;;;;;;;12.07;3.92;;;;;;;14.15;100.00;100341.78;5264810;28;20048;-73
2023/10/31 11:16:08;;;;;;;14.98;3.53;;;;;;;14.14;100.00;100334.75;5265606;28;20168;-73
2023/10/31 11:18:40;;;;;;;10.25;3.53;;;;;;;14.38;100.00;100329.84;5264931;28;20024;-73
2023/10/31 11:21:11;;;;;;;13.45;4.88;;;;;;;14.46;100.00;100330.50;5266152;28;20028;-72
2023/10/31 11:23:41;;;;;;;9.18;3.53;;;;;;;14.45;100.00;100331.50;5260430;28;20035;-72